createdAt,value
2023-01-25T00:00:05.065Z,22.67
2023-01-25T00:02:10.486Z,19.40
2023-01-25T00:04:15.703Z,19.75
2023-01-25T00:06:21.368Z,22.67
2023-01-25T00:08:26.325Z,21.17
2023-01-25T00:10:31.689Z,20.60
2023-01-25T00:12:39.234Z,24.00
2023-01-25T00:14:44.234Z,23.05
2023-01-25T00:16:49.795Z,21.45
2023-01-25T00:18:55.190Z,20.13
2023-01-25T00:21:01.218Z,22.30
2023-01-25T00:23:06.225Z,20.80
2023-01-25T00:25:13.307Z,22.83
2023-01-25T00:27:18.267Z,20.88
2023-01-25T00:29:26.745Z,21.20
2023-01-25T00:33:55.061Z,22.98
2023-01-25T00:36:00.843Z,23.42
2023-01-25T00:38:25.022Z,25.48
2023-01-25T00:40:31.122Z,25.67
2023-01-25T00:42:37.000Z,26.00
2023-01-25T00:44:45.565Z,24.42
2023-01-25T00:46:51.079Z,26.35
2023-01-25T00:48:57.731Z,23.25
2023-01-25T00:51:03.744Z,26.50
2023-01-25T00:53:09.234Z,22.92
2023-01-25T00:55:14.418Z,26.17
2023-01-25T00:57:20.129Z,24.13
2023-01-25T00:59:26.016Z,23.85
2023-01-25T01:01:35.095Z,25.95
2023-01-25T01:03:40.186Z,23.58
2023-01-25T01:05:45.291Z,27.38
2023-01-25T01:07:53.083Z,23.23
2023-01-25T01:09:59.277Z,25.95
2023-01-25T01:12:04.275Z,28.48
2023-01-25T01:14:09.494Z,25.05
2023-01-25T01:16:16.382Z,29.02
2023-01-25T01:18:24.546Z,23.67
2023-01-25T01:20:29.869Z,23.55
2023-01-25T01:22:34.771Z,26.75
2023-01-25T01:24:39.841Z,27.60
2023-01-25T01:26:44.787Z,26.63
2023-01-25T01:28:50.378Z,25.73
2023-01-25T01:30:57.125Z,25.15
2023-01-25T01:33:02.539Z,25.08
2023-01-25T01:35:12.039Z,26.17
2023-01-25T01:37:16.954Z,25.10
2023-01-25T01:39:21.814Z,21.67
2023-01-25T01:41:26.678Z,22.27
2023-01-25T01:43:32.254Z,27.30
2023-01-25T01:45:58.265Z,25.25
2023-01-25T01:48:14.209Z,25.48
2023-01-25T01:50:26.320Z,24.02
2023-01-25T01:52:37.107Z,21.42
2023-01-25T01:54:46.272Z,22.27
2023-01-25T01:56:59.180Z,23.50
2023-01-25T01:59:07.487Z,23.95
2023-01-25T02:01:13.067Z,22.85
2023-01-25T02:03:18.966Z,25.83
2023-01-25T02:05:42.685Z,25.20
2023-01-25T02:07:52.289Z,25.58
2023-01-25T02:09:58.063Z,25.80
2023-01-25T02:12:03.735Z,26.10
2023-01-25T02:14:11.129Z,20.90
2023-01-25T02:16:22.354Z,25.00
2023-01-25T02:18:28.177Z,23.45
2023-01-25T02:20:40.410Z,27.60
2023-01-25T02:22:54.551Z,26.33
2023-01-25T02:25:09.585Z,24.77
2023-01-25T02:27:15.237Z,21.05
2023-01-25T02:29:24.170Z,21.08
2023-01-25T02:31:31.694Z,19.17
2023-01-25T02:33:38.179Z,22.05
2023-01-25T02:35:48.040Z,21.73
2023-01-25T02:37:55.614Z,24.08
2023-01-25T02:40:00.543Z,20.55
2023-01-25T02:42:09.460Z,21.85
2023-01-25T02:44:20.790Z,22.70
2023-01-25T02:46:30.667Z,21.48
2023-01-25T02:48:36.134Z,22.50
2023-01-25T02:50:41.088Z,22.42
2023-01-25T02:52:46.035Z,23.13
2023-01-25T02:54:51.702Z,23.75
2023-01-25T02:56:57.066Z,24.90
2023-01-25T02:59:07.809Z,23.23
2023-01-25T03:01:14.566Z,23.35
2023-01-25T03:03:20.756Z,22.93
2023-01-25T03:05:25.693Z,25.48
2023-01-25T03:07:31.548Z,24.33
2023-01-25T03:09:37.114Z,21.13
2023-01-25T03:11:42.725Z,21.77
2023-01-25T03:13:48.890Z,25.23
2023-01-25T03:16:04.151Z,20.65
2023-01-25T03:18:10.920Z,21.80
2023-01-25T03:20:16.753Z,24.92
2023-01-25T03:22:22.166Z,23.15
2023-01-25T03:24:28.907Z,18.55
2023-01-25T03:26:54.390Z,19.27
2023-01-25T03:29:04.702Z,19.63
2023-01-25T03:31:17.447Z,21.30
2023-01-25T03:33:23.123Z,21.08
2023-01-25T03:35:28.908Z,17.85
2023-01-25T03:37:34.555Z,19.08
2023-01-25T03:39:41.629Z,19.85
2023-01-25T03:41:47.425Z,20.85
2023-01-25T03:43:53.762Z,21.55
2023-01-25T03:46:02.327Z,22.55
2023-01-25T03:48:12.787Z,22.27
2023-01-25T03:52:27.428Z,22.15
2023-01-25T03:54:33.836Z,21.52
2023-01-25T03:56:39.379Z,21.17
2023-01-25T03:58:55.592Z,23.80
2023-01-25T04:01:03.407Z,19.05
2023-01-25T04:03:08.392Z,22.80
2023-01-25T04:05:16.482Z,21.55
2023-01-25T04:07:21.872Z,25.23
2023-01-25T04:09:26.824Z,24.17
2023-01-25T04:11:34.985Z,22.27
2023-01-25T04:13:42.060Z,24.10
2023-01-25T04:15:49.946Z,21.83
2023-01-25T04:18:09.575Z,22.30
2023-01-25T04:20:18.741Z,25.88
2023-01-25T04:22:24.409Z,23.02
2023-01-25T04:24:32.531Z,25.33
2023-01-25T04:26:37.749Z,25.10
2023-01-25T04:28:44.039Z,21.27
2023-01-25T04:30:49.765Z,25.75
2023-01-25T04:32:56.146Z,21.83
2023-01-25T04:35:09.883Z,24.42
2023-01-25T04:37:18.137Z,24.08
2023-01-25T04:39:30.738Z,23.27
2023-01-25T04:41:35.657Z,24.95
2023-01-25T04:43:40.633Z,21.73
2023-01-25T04:45:49.109Z,22.15
2023-01-25T04:48:02.761Z,20.98
2023-01-25T04:50:09.521Z,23.65
2023-01-25T04:52:18.548Z,20.17
2023-01-25T04:56:28.576Z,22.38
2023-01-25T04:58:36.768Z,22.67
2023-01-25T05:00:41.958Z,22.23
2023-01-25T05:02:49.651Z,22.27
2023-01-25T05:04:54.623Z,23.88
2023-01-25T05:07:00.265Z,20.92
2023-01-25T05:09:08.314Z,22.77
2023-01-25T05:11:13.556Z,22.00
2023-01-25T05:13:27.135Z,19.83
2023-01-25T05:15:44.903Z,22.95
2023-01-25T05:17:49.794Z,22.23
2023-01-25T05:19:55.211Z,24.98
2023-01-25T05:21:59.124Z,19.77
2023-01-25T05:24:13.805Z,21.95
2023-01-25T05:26:31.926Z,24.58
2023-01-25T05:30:59.203Z,22.52
2023-01-25T05:33:05.303Z,21.33
2023-01-25T05:35:12.600Z,22.65
2023-01-25T05:37:21.628Z,26.38
2023-01-25T05:39:36.605Z,22.90
2023-01-25T05:41:41.777Z,21.70
2023-01-25T05:43:46.784Z,21.73
2023-01-25T05:45:56.416Z,23.27
2023-01-25T05:48:02.626Z,19.02
2023-01-25T05:50:10.869Z,19.50
2023-01-25T05:52:28.854Z,21.67
2023-01-25T05:54:37.482Z,20.13
2023-01-25T05:56:48.234Z,23.55
2023-01-25T05:58:56.588Z,21.17
2023-01-25T06:01:03.516Z,21.73
2023-01-25T06:03:18.439Z,20.13
2023-01-25T06:05:24.001Z,22.17
2023-01-25T06:07:28.911Z,21.23
2023-01-25T06:09:36.699Z,24.05
2023-01-25T06:13:47.869Z,21.65
2023-01-25T06:15:56.167Z,19.38
2023-01-25T06:18:38.123Z,22.75
2023-01-25T06:21:02.235Z,22.23
2023-01-25T06:23:14.058Z,20.55
2023-01-25T06:25:21.948Z,16.30
2023-01-25T06:27:27.127Z,19.52
2023-01-25T06:29:32.055Z,17.02
2023-01-25T06:31:37.626Z,23.23
2023-01-25T06:33:43.639Z,23.95
2023-01-25T06:35:52.531Z,28.23
2023-01-25T06:37:58.425Z,22.00
2023-01-25T06:40:03.313Z,22.23
2023-01-25T06:42:10.882Z,24.23
2023-01-25T06:44:16.150Z,19.08
2023-01-25T06:46:22.146Z,20.67
2023-01-25T06:48:27.259Z,21.98
2023-01-25T06:50:32.297Z,20.42
2023-01-25T06:52:37.655Z,22.90
2023-01-25T06:54:42.581Z,20.42
2023-01-25T06:56:47.500Z,23.63
2023-01-25T06:58:55.101Z,22.42
2023-01-25T07:01:04.443Z,23.45
2023-01-25T07:03:09.454Z,23.73
2023-01-25T07:05:14.688Z,23.98
2023-01-25T07:07:19.743Z,20.80
2023-01-25T07:09:25.161Z,21.02
2023-01-25T07:11:30.457Z,24.25
2023-01-25T07:13:37.061Z,24.92
2023-01-25T07:15:44.661Z,21.88
2023-01-25T07:19:55.155Z,21.90
2023-01-25T07:22:00.234Z,22.27
2023-01-25T07:24:07.620Z,24.02
2023-01-25T07:26:20.189Z,25.90
2023-01-25T07:28:25.372Z,24.10
2023-01-25T07:30:32.767Z,22.55
2023-01-25T07:32:40.236Z,23.27
2023-01-25T07:34:45.147Z,26.63
2023-01-25T07:36:50.577Z,28.65
2023-01-25T07:38:57.435Z,28.00
2023-01-25T07:41:04.604Z,28.30
2023-01-25T07:43:09.497Z,26.23
2023-01-25T07:45:15.542Z,25.60
2023-01-25T07:47:20.911Z,26.23
2023-01-25T07:49:28.776Z,27.05
2023-01-25T07:51:33.713Z,24.73
2023-01-25T07:53:38.719Z,23.75
2023-01-25T07:55:43.645Z,26.27
2023-01-25T07:57:48.800Z,26.00
2023-01-25T07:59:53.805Z,27.48
2023-01-25T08:01:58.940Z,25.52
2023-01-25T08:04:05.173Z,25.02
2023-01-25T08:06:13.580Z,28.20
2023-01-25T08:08:18.494Z,29.52
2023-01-25T08:10:24.354Z,23.25
2023-01-25T08:12:29.510Z,28.50
2023-01-25T08:14:34.476Z,26.42
2023-01-25T08:16:39.497Z,25.05
2023-01-25T08:18:44.706Z,29.58
2023-01-25T08:20:50.858Z,30.05
2023-01-25T08:22:58.577Z,29.90
2023-01-25T08:25:03.819Z,29.35
2023-01-25T08:27:08.880Z,30.55
2023-01-25T08:29:15.254Z,30.45
2023-01-25T08:31:23.671Z,27.50
2023-01-25T08:33:28.611Z,28.75
2023-01-25T08:35:35.696Z,25.42
2023-01-25T08:37:40.690Z,26.52
2023-01-25T08:39:48.204Z,23.60
2023-01-25T08:41:53.055Z,27.17
2023-01-25T08:43:59.123Z,22.27
2023-01-25T08:46:04.504Z,32.85
2023-01-25T08:48:12.205Z,26.10
2023-01-25T08:50:17.184Z,22.13
2023-01-25T08:52:23.045Z,25.35
2023-01-25T08:54:28.418Z,24.77
2023-01-25T08:56:36.178Z,25.70
2023-01-25T08:58:43.699Z,21.45
2023-01-25T09:00:49.096Z,20.70
2023-01-25T09:02:54.042Z,25.10
2023-01-25T09:04:59.349Z,24.95
2023-01-25T09:07:04.370Z,25.40
2023-01-25T09:09:10.328Z,25.17
2023-01-25T09:11:18.067Z,24.40
2023-01-25T09:13:25.835Z,25.65
2023-01-25T09:15:31.080Z,23.73
2023-01-25T09:17:38.997Z,24.63
2023-01-25T09:21:49.288Z,25.70
2023-01-25T09:24:11.511Z,23.02
2023-01-25T09:26:16.435Z,25.00
2023-01-25T09:28:21.305Z,21.65
2023-01-25T09:30:44.835Z,23.90
2023-01-25T09:33:03.837Z,27.45
2023-01-25T09:35:09.767Z,19.98
2023-01-25T09:37:14.621Z,27.88
2023-01-25T09:39:20.775Z,24.92
2023-01-25T09:41:48.316Z,28.67
2023-01-25T09:46:37.199Z,26.05
2023-01-25T09:49:02.849Z,23.55
2023-01-25T09:51:26.273Z,26.00
2023-01-25T09:53:36.345Z,21.85
2023-01-25T09:55:42.556Z,22.58
2023-01-25T09:57:51.011Z,24.90
2023-01-25T09:59:59.588Z,26.15
2023-01-25T10:02:22.838Z,26.67
2023-01-25T10:04:31.362Z,26.60
2023-01-25T10:06:54.987Z,24.13
2023-01-25T10:09:23.035Z,26.25
2023-01-25T10:11:31.247Z,25.50
2023-01-25T10:13:36.248Z,23.75
2023-01-25T10:15:46.262Z,27.58
2023-01-25T10:18:01.920Z,25.95
2023-01-25T10:20:24.164Z,26.73
2023-01-25T10:22:32.864Z,26.17
2023-01-25T10:25:21.457Z,26.10
2023-01-25T10:27:37.062Z,28.20
2023-01-25T10:29:42.479Z,28.13
2023-01-25T10:31:53.816Z,28.58
2023-01-25T10:34:03.466Z,27.30
2023-01-25T10:36:09.560Z,26.10
2023-01-25T10:38:21.428Z,24.15
2023-01-25T10:40:29.691Z,25.67
2023-01-25T10:42:42.917Z,30.75
2023-01-25T10:44:47.767Z,30.90
2023-01-25T10:47:00.749Z,25.58
2023-01-25T10:49:24.754Z,26.88
2023-01-25T10:51:35.697Z,30.58
2023-01-25T10:53:44.170Z,28.55
2023-01-25T10:56:17.189Z,27.50
2023-01-25T10:58:35.560Z,26.67
2023-01-25T11:00:44.045Z,28.75
2023-01-25T11:02:50.791Z,26.48
2023-01-25T11:04:58.257Z,25.27
2023-01-25T11:07:05.080Z,31.98
2023-01-25T11:09:37.121Z,32.83
2023-01-25T11:11:43.184Z,28.33
2023-01-25T11:13:48.132Z,30.58
2023-01-25T11:15:55.810Z,31.85
2023-01-25T11:18:09.073Z,31.73
2023-01-25T11:20:24.486Z,31.08
2023-01-25T11:22:29.420Z,28.42
2023-01-25T11:24:37.538Z,31.65
2023-01-25T11:26:43.902Z,28.38
2023-01-25T11:28:51.176Z,28.30
2023-01-25T11:30:57.011Z,27.98
2023-01-25T11:33:02.399Z,29.15
2023-01-25T11:35:15.614Z,23.27
2023-01-25T11:37:45.609Z,28.27
2023-01-25T11:40:02.025Z,30.60
2023-01-25T11:42:25.073Z,27.50
2023-01-25T11:45:00.622Z,22.92
2023-01-25T11:47:16.949Z,28.92
2023-01-25T11:49:37.980Z,28.25
2023-01-25T11:51:53.943Z,30.10
2023-01-25T11:54:32.608Z,27.05
2023-01-25T11:56:56.974Z,27.20
2023-01-25T11:59:32.788Z,25.58
2023-01-25T12:01:48.959Z,28.30
2023-01-25T12:04:25.445Z,29.63
2023-01-25T12:06:44.777Z,26.50
2023-01-25T12:09:06.000Z,28.30
2023-01-25T12:11:23.552Z,27.95
2023-01-25T12:13:46.709Z,26.95
2023-01-25T12:16:23.159Z,28.85
2023-01-25T12:18:56.732Z,33.43
2023-01-25T12:21:22.988Z,30.65
2023-01-25T12:23:54.103Z,31.00
2023-01-25T12:26:27.056Z,32.83
2023-01-25T12:28:39.579Z,31.48
2023-01-25T12:30:53.097Z,26.52
2023-01-25T12:33:14.048Z,30.42
2023-01-25T12:35:33.800Z,30.17
2023-01-25T12:37:44.761Z,28.92
2023-01-25T12:39:57.033Z,29.70
2023-01-25T12:42:14.592Z,30.67
2023-01-25T12:44:27.216Z,32.90
2023-01-25T12:46:41.848Z,28.05
2023-01-25T12:48:52.952Z,26.75
2023-01-25T12:50:59.766Z,32.40
2023-01-25T12:53:16.266Z,31.55
2023-01-25T12:55:21.957Z,32.25
2023-01-25T12:57:38.870Z,28.23
2023-01-25T12:59:56.660Z,29.80
2023-01-25T13:02:17.239Z,27.65
2023-01-25T13:04:46.251Z,28.77
2023-01-25T13:06:58.638Z,29.52
2023-01-25T13:09:14.474Z,30.05
2023-01-25T13:11:25.426Z,31.80
2023-01-25T13:13:33.702Z,29.48
2023-01-25T13:15:44.504Z,31.83
2023-01-25T13:17:49.692Z,28.05
2023-01-25T13:19:56.111Z,31.83
2023-01-25T13:22:03.170Z,30.23
2023-01-25T13:24:20.842Z,32.30
2023-01-25T13:26:51.376Z,27.65
2023-01-25T13:29:01.142Z,28.08
2023-01-25T13:31:06.245Z,31.00
2023-01-25T13:33:11.279Z,28.55
2023-01-25T13:35:50.633Z,31.48
2023-01-25T13:38:06.087Z,29.65
2023-01-25T13:40:34.163Z,29.98
2023-01-25T13:42:42.773Z,32.85
2023-01-25T13:44:52.819Z,35.50
2023-01-25T13:46:57.795Z,30.00
2023-01-25T13:49:08.549Z,33.50
2023-01-25T13:51:19.473Z,29.58
2023-01-25T13:53:29.513Z,34.42
2023-01-25T13:55:43.799Z,31.00
2023-01-25T13:57:49.097Z,30.88
2023-01-25T14:00:11.018Z,27.23
2023-01-25T14:02:22.460Z,25.50
2023-01-25T14:04:28.022Z,29.95
2023-01-25T14:06:36.191Z,23.45
2023-01-25T14:08:42.018Z,23.13
2023-01-25T14:10:47.871Z,27.38
2023-01-25T14:12:54.840Z,24.35
2023-01-25T14:15:00.164Z,25.47
2023-01-25T14:17:18.702Z,24.63
2023-01-25T14:19:30.158Z,23.88
2023-01-25T14:21:35.060Z,23.70
2023-01-25T14:23:40.919Z,23.88
2023-01-25T14:25:45.789Z,21.40
2023-01-25T14:27:56.055Z,18.38
2023-01-25T14:30:01.245Z,22.27
2023-01-25T14:32:09.234Z,20.40
2023-01-25T14:34:21.808Z,21.13
2023-01-25T14:36:31.918Z,18.80
2023-01-25T14:38:40.135Z,19.02
2023-01-25T14:40:46.149Z,17.52
2023-01-25T14:42:51.341Z,16.88
2023-01-25T14:44:56.328Z,17.95
2023-01-25T14:47:33.003Z,15.85
2023-01-25T14:49:37.893Z,17.25
2023-01-25T14:51:48.334Z,17.77
2023-01-25T14:54:01.004Z,17.77
2023-01-25T14:56:05.878Z,17.30
2023-01-25T14:58:19.780Z,21.15
2023-01-25T15:00:31.701Z,17.38
2023-01-25T15:02:43.849Z,15.30
2023-01-25T15:05:10.906Z,15.63
2023-01-25T15:07:37.083Z,15.18
2023-01-25T15:09:44.968Z,16.42
2023-01-25T15:11:50.850Z,17.33
2023-01-25T15:14:05.943Z,19.30
2023-01-25T15:16:11.508Z,19.17
2023-01-25T15:18:47.465Z,21.20
2023-01-25T15:20:53.158Z,18.70
2023-01-25T15:22:58.976Z,16.83
2023-01-25T15:25:05.816Z,20.05
2023-01-25T15:27:14.366Z,19.33
2023-01-25T15:29:23.149Z,20.20
2023-01-25T15:31:31.293Z,20.27
2023-01-25T15:33:37.288Z,22.58
2023-01-25T15:35:45.431Z,19.23
2023-01-25T15:37:51.352Z,20.92
2023-01-25T15:39:56.736Z,22.48
2023-01-25T15:42:01.567Z,21.65
2023-01-25T15:44:07.533Z,21.45
2023-01-25T15:46:21.077Z,23.65
2023-01-25T15:48:32.383Z,22.55
2023-01-25T15:50:37.670Z,23.25
2023-01-25T15:52:45.519Z,22.70
2023-01-25T15:54:59.855Z,23.02
2023-01-25T15:57:06.332Z,20.92
2023-01-25T15:59:18.467Z,24.13
2023-01-25T16:01:27.070Z,23.75
2023-01-25T16:03:33.418Z,22.15
2023-01-25T16:05:39.687Z,23.40
2023-01-25T16:07:48.489Z,21.63
2023-01-25T16:09:54.077Z,23.30
2023-01-25T16:12:01.812Z,26.75
2023-01-25T16:14:07.977Z,27.65
2023-01-25T16:16:21.799Z,26.25
2023-01-25T16:18:27.111Z,25.27
2023-01-25T16:20:32.237Z,22.50
2023-01-25T16:22:37.368Z,24.60
2023-01-25T16:24:45.382Z,27.52
2023-01-25T16:26:54.813Z,26.10
2023-01-25T16:29:00.092Z,23.85
2023-01-25T16:31:05.494Z,26.30
2023-01-25T16:33:11.017Z,28.38
2023-01-25T16:35:16.245Z,23.85
2023-01-25T16:37:21.688Z,24.58
2023-01-25T16:39:28.833Z,26.38
2023-01-25T16:41:37.524Z,27.70
2023-01-25T16:43:44.166Z,27.63
2023-01-25T16:45:49.159Z,31.27
2023-01-25T16:47:54.973Z,28.13
2023-01-25T16:49:59.843Z,28.30
2023-01-25T16:52:06.241Z,28.45
2023-01-25T16:54:14.753Z,27.85
2023-01-25T16:56:21.962Z,27.42
2023-01-25T16:58:29.431Z,26.52
2023-01-25T17:00:34.348Z,23.83
2023-01-25T17:02:41.903Z,21.60
2023-01-25T17:04:52.002Z,23.83
2023-01-25T17:06:58.860Z,27.90
2023-01-25T17:09:21.574Z,25.98
2023-01-25T17:11:28.424Z,28.95
2023-01-25T17:13:36.433Z,29.15
2023-01-25T17:15:41.302Z,26.85
2023-01-25T17:17:46.204Z,24.80
2023-01-25T17:19:52.663Z,30.02
2023-01-25T17:21:59.117Z,28.83
2023-01-25T17:24:05.383Z,26.75
2023-01-25T17:26:14.515Z,30.48
2023-01-25T17:28:19.778Z,30.23
2023-01-25T17:30:27.391Z,32.92
2023-01-25T17:32:32.328Z,20.67
2023-01-25T17:34:37.633Z,21.20
2023-01-25T17:36:43.605Z,31.75
2023-01-25T17:38:49.370Z,28.80
2023-01-25T17:40:54.468Z,27.42
2023-01-25T17:42:59.358Z,29.17
2023-01-25T17:45:05.015Z,29.83
2023-01-25T17:47:12.521Z,27.83
2023-01-25T17:49:19.472Z,30.67
2023-01-25T17:51:25.303Z,28.25
2023-01-25T17:53:30.491Z,27.98
2023-01-25T17:55:39.867Z,28.98
2023-01-25T17:57:45.082Z,27.90
2023-01-25T17:59:50.998Z,28.40
2023-01-25T18:01:55.945Z,28.58
2023-01-25T18:04:03.708Z,26.20
2023-01-25T18:06:10.641Z,29.20
2023-01-25T18:08:17.055Z,30.23
2023-01-25T18:10:22.276Z,28.38
2023-01-25T18:12:27.683Z,30.92
2023-01-25T18:14:33.027Z,24.10
2023-01-25T18:16:41.727Z,27.67
2023-01-25T18:18:48.222Z,23.80
2023-01-25T18:21:04.181Z,24.33
2023-01-25T18:23:09.085Z,27.23
2023-01-25T18:25:35.091Z,23.65
2023-01-25T18:27:40.056Z,22.85
2023-01-25T18:29:55.209Z,25.58
2023-01-25T18:32:03.131Z,27.10
2023-01-25T18:34:08.181Z,27.17
2023-01-25T18:36:17.687Z,26.95
2023-01-25T18:38:22.868Z,22.90
2023-01-25T18:40:29.879Z,25.73
2023-01-25T18:42:34.754Z,25.70
2023-01-25T18:44:39.671Z,22.92
2023-01-25T18:46:45.509Z,27.25
2023-01-25T18:48:51.219Z,22.85
2023-01-25T18:50:56.235Z,27.17
2023-01-25T18:53:03.705Z,28.98
2023-01-25T18:55:09.969Z,29.13
2023-01-25T18:57:15.882Z,31.00
2023-01-25T18:59:20.775Z,28.73
2023-01-25T19:01:26.194Z,25.02
2023-01-25T19:03:31.565Z,29.63
2023-01-25T19:05:38.065Z,28.60
2023-01-25T19:07:43.040Z,31.08
2023-01-25T19:09:50.929Z,30.40
2023-01-25T19:11:56.312Z,29.38
2023-01-25T19:14:01.759Z,29.60
2023-01-25T19:16:10.059Z,27.35
2023-01-25T19:18:15.190Z,28.98
2023-01-25T19:20:21.323Z,29.70
2023-01-25T19:22:27.440Z,28.77
2023-01-25T19:24:32.631Z,33.60
2023-01-25T19:26:40.597Z,33.08
2023-01-25T19:30:51.108Z,27.10
2023-01-25T19:32:57.194Z,28.02
2023-01-25T19:35:02.156Z,32.35
2023-01-25T19:37:07.483Z,29.15
2023-01-25T19:39:12.956Z,29.33
2023-01-25T19:41:21.084Z,28.00
2023-01-25T19:43:28.603Z,29.73
2023-01-25T19:45:33.665Z,28.48
2023-01-25T19:47:38.565Z,32.72
2023-01-25T19:49:43.636Z,30.35
2023-01-25T19:51:53.072Z,24.67
2023-01-25T19:54:03.027Z,28.67
2023-01-25T19:56:10.555Z,32.40
2023-01-25T19:58:15.507Z,28.30
2023-01-25T20:00:23.808Z,29.13
2023-01-25T20:02:29.135Z,28.80
2023-01-25T20:04:34.460Z,28.73
2023-01-25T20:06:40.151Z,34.55
2023-01-25T20:08:48.376Z,32.38
2023-01-25T20:10:53.323Z,33.72
2023-01-25T20:12:58.378Z,33.30
2023-01-25T20:15:03.655Z,31.92
2023-01-25T20:17:11.909Z,32.95
2023-01-25T20:19:17.121Z,32.53
2023-01-25T20:21:25.713Z,29.75
